Time;durP1;ratioP1;P1;durP2;ratioP2;P2;SDS_P1;SDS_P2;PMS_P1;PMS_P2;Temp;Humidity;BMP_temperature;BMP_pressure;BME280_temperature;BME280_humidity;BME280_pressure;Samples;Min_cycle;Max_cycle;Signal;HPM_P1;HPM_P2
2022/07/14 00:01:09;;;;;;;;;;;;;;;18.20;49.98;99693.69;4962278;28;19936;-93
2022/07/14 00:03:35;;;;;;;;;;;;;;;18.14;50.09;99694.94;4962605;28;19925;-95
2022/07/14 00:06:01;;;;;;;;;;;;;;;18.12;50.39;99697.97;4962229;28;20021;-94
2022/07/14 00:08:26;;;;;;;;;;;;;;;18.09;50.44;99698.56;4978043;28;19914;-93
2022/07/14 00:10:52;;;;;;;;;;;;;;;18.01;50.75;99701.25;4962727;28;19968;-93
2022/07/14 00:13:17;;;;;;;;;;;;;;;17.89;50.89;99694.44;4978552;28;19953;-94
2022/07/14 00:15:45;;;;;;;;;;;;;;;17.86;50.85;99694.25;4962281;28;20364;-93
2022/07/14 00:18:11;;;;;;;;;;;;;;;17.83;51.32;99694.88;4978161;28;19914;-93
2022/07/14 00:20:37;;;;;;;;;;;;;;;17.78;51.17;99704.75;4978781;28;19921;-94
2022/07/14 00:23:02;;;;;;;;;;;;;;;17.72;51.14;99703.25;4962498;28;19918;-94
2022/07/14 00:25:28;;;;;;;;;;;;;;;17.66;51.57;99701.75;4962152;28;20372;-95
2022/07/14 00:27:54;;;;;;;;;;;;;;;17.61;51.83;99701.06;4963786;28;20284;-94
2022/07/14 00:30:20;;;;;;;;;;;;;;;17.64;51.48;99700.44;4965562;28;19940;-94
2022/07/14 00:32:45;;;;;;;;;;;;;;;17.64;51.81;99705.88;4966045;28;19921;-94
2022/07/14 00:35:11;;;;;;;;;;;;;;;17.61;51.59;99707.31;4965249;28;20016;-93
2022/07/14 00:37:37;;;;;;;;;;;;;;;17.52;51.50;99709.97;4965484;28;19914;-94
2022/07/14 00:40:04;;;;;;;;;;;;;;;17.47;52.22;99709.25;4998465;28;20355;-94
2022/07/14 00:42:32;;;;;;;;;;;;;;;17.38;52.40;99706.47;4965009;28;19917;-95
2022/07/14 00:45:00;;;;;;;;;;;;;;;17.34;52.49;99708.97;4964963;28;20036;-94
2022/07/14 00:47:26;;;;;;;;;;;;;;;17.37;52.44;99704.88;4965026;28;19921;-94
2022/07/14 00:49:53;;;;;;;;;;;;;;;17.28;52.18;99706.69;4965081;28;20449;-93
2022/07/14 00:52:19;;;;;;;;;;;;;;;17.33;52.41;99699.22;4965141;28;19926;-94
2022/07/14 00:54:44;;;;;;;;;;;;;;;17.32;52.46;99711.19;4964647;28;20001;-93
2022/07/14 00:57:11;;;;;;;;;;;;;;;17.26;52.55;99708.91;4964547;28;19913;-93
2022/07/14 00:59:37;;;;;;;;;;;;;;;17.23;52.28;99706.81;4965056;28;20335;-92
2022/07/14 01:02:03;;;;;;;;;;;;;;;17.23;52.53;99709.53;4998176;28;19914;-94
2022/07/14 01:04:29;;;;;;;;;;;;;;;17.35;51.98;99709.81;4965162;28;20281;-94
2022/07/14 01:06:57;;;;;;;;;;;;;;;17.30;51.50;99699.81;4964392;28;19913;-92
2022/07/14 01:09:24;;;;;;;;;;;;;;;17.34;51.79;99708.19;4980233;28;19914;-93
2022/07/14 01:11:51;;;;;;;;;;;;;;;17.32;51.76;99707.69;4980539;28;19918;-93
2022/07/14 01:14:17;;;;;;;;;;;;;;;17.29;52.32;99705.59;4980647;28;19917;-93
2022/07/14 01:16:43;;;;;;;;;;;;;;;17.21;52.50;99711.75;4980631;28;19920;-92
2022/07/14 01:19:09;;;;;;;;;;;;;;;17.19;52.39;99712.03;4980138;28;19917;-92
2022/07/14 01:21:34;;;;;;;;;;;;;;;17.16;52.83;99709.91;4980305;28;20399;-93
2022/07/14 01:24:01;;;;;;;;;;;;;;;17.11;52.99;99710.03;4965125;28;19970;-93
2022/07/14 01:26:27;;;;;;;;;;;;;;;16.99;53.34;99709.72;4998147;28;19921;-93
2022/07/14 01:28:53;;;;;;;;;;;;;;;16.94;53.60;99702.47;4963712;28;20388;-92
2022/07/14 01:31:18;;;;;;;;;;;;;;;16.85;53.78;99707.81;4980056;28;19929;-92
2022/07/14 01:33:44;;;;;;;;;;;;;;;16.84;53.68;99702.69;4980202;28;19914;-92
2022/07/14 01:36:10;;;;;;;;;;;;;;;16.83;53.98;99703.78;4979737;28;19945;-93
2022/07/14 01:38:35;;;;;;;;;;;;;;;16.76;54.38;99701.44;4963281;28;19968;-92
2022/07/14 01:41:01;;;;;;;;;;;;;;;16.77;53.99;99701.13;4963250;28;20107;-93
2022/07/14 01:43:27;;;;;;;;;;;;;;;16.70;54.49;99708.06;4963427;28;20466;-92
2022/07/14 01:45:52;;;;;;;;;;;;;;;16.63;54.32;99696.81;4980446;28;19917;-93
2022/07/14 01:48:18;;;;;;;;;;;;;;;16.55;54.38;99698.28;4962792;28;19914;-92
2022/07/14 01:50:44;;;;;;;;;;;;;;;16.53;54.12;99701.31;4979133;28;19972;-94
2022/07/14 01:53:09;;;;;;;;;;;;;;;16.47;54.57;99693.53;4963679;28;19921;-92
2022/07/14 01:55:34;;;;;;;;;;;;;;;16.37;54.94;99694.53;4979326;28;19914;-92
2022/07/14 01:58:01;;;;;;;;;;;;;;;16.41;54.70;99689.31;4962759;28;20388;-92
2022/07/14 02:00:26;;;;;;;;;;;;;;;16.35;55.12;99692.13;4979901;28;19973;-92
2022/07/14 02:02:51;;;;;;;;;;;;;;;16.32;55.61;99700.06;4963252;28;19918;-92
2022/07/14 02:05:17;;;;;;;;;;;;;;;16.21;55.71;99699.44;4963685;28;20380;-93
2022/07/14 02:07:43;;;;;;;;;;;;;;;16.20;55.90;99702.44;4978161;28;20016;-93
2022/07/14 02:12:52;;;;;;;;;;;;;;;16.25;55.58;99700.47;4982235;28;19925;-92
2022/07/14 02:15:18;;;;;;;;;;;;;;;16.24;55.90;99703.47;4962666;28;19914;-93
2022/07/14 02:17:43;;;;;;;;;;;;;;;16.23;55.74;99705.38;4963131;28;19914;-93
2022/07/14 02:20:09;;;;;;;;;;;;;;;16.23;55.62;99702.66;4962684;28;19924;-92
2022/07/14 02:22:34;;;;;;;;;;;;;;;16.24;55.83;99714.34;4963538;28;19945;-93
2022/07/14 02:24:59;;;;;;;;;;;;;;;16.23;55.99;99707.28;4963282;28;20323;-92
2022/07/14 02:27:25;;;;;;;;;;;;;;;16.19;56.05;99711.72;4962828;28;20376;-93
2022/07/14 02:29:50;;;;;;;;;;;;;;;16.23;55.93;99718.13;4979474;28;20402;-93
2022/07/14 02:32:16;;;;;;;;;;;;;;;16.19;55.88;99720.66;4963153;28;19925;-93
2022/07/14 02:34:42;;;;;;;;;;;;;;;16.19;56.02;99719.88;4963414;28;19917;-93
2022/07/14 02:37:08;;;;;;;;;;;;;;;16.20;56.10;99716.03;4963294;28;19925;-93
2022/07/14 02:39:34;;;;;;;;;;;;;;;16.32;55.54;99719.09;4978941;28;19937;-92
2022/07/14 02:41:59;;;;;;;;;;;;;;;16.46;54.73;99717.22;4978785;28;19936;-93
2022/07/14 02:44:25;;;;;;;;;;;;;;;16.50;54.19;99717.44;4962208;28;20000;-92
2022/07/14 02:46:50;;;;;;;;;;;;;;;16.38;55.10;99723.34;4962719;28;20001;-93
2022/07/14 02:49:16;;;;;;;;;;;;;;;16.32;55.36;99719.09;4962511;28;19925;-92
2022/07/14 02:51:41;;;;;;;;;;;;;;;16.29;55.68;99725.09;4961701;28;20016;-92
2022/07/14 02:54:06;;;;;;;;;;;;;;;16.29;55.72;99727.81;4962120;28;19914;-92
2022/07/14 02:56:33;;;;;;;;;;;;;;;16.27;55.50;99717.28;4962426;28;19913;-92
2022/07/14 02:58:59;;;;;;;;;;;;;;;16.27;55.65;99725.44;4962777;28;20295;-92
2022/07/14 03:01:24;;;;;;;;;;;;;;;16.20;56.14;99721.47;4962004;28;19922;-91
2022/07/14 03:03:51;;;;;;;;;;;;;;;16.10;55.88;99733.31;4962077;28;19921;-92
2022/07/14 03:06:17;;;;;;;;;;;;;;;16.22;55.82;99735.56;4961400;28;20008;-91
2022/07/14 03:08:43;;;;;;;;;;;;;;;16.40;53.65;99736.63;4961706;28;19925;-91
2022/07/14 03:11:08;;;;;;;;;;;;;;;16.49;53.92;99732.09;4977312;28;19925;-90
2022/07/14 03:13:35;;;;;;;;;;;;;;;16.39;54.75;99735.00;4977722;28;19914;-91
2022/07/14 03:16:00;;;;;;;;;;;;;;;16.28;55.72;99740.59;4961484;28;19924;-91
2022/07/14 03:18:27;;;;;;;;;;;;;;;16.30;55.83;99738.41;4977387;28;20384;-90
2022/07/14 03:20:52;;;;;;;;;;;;;;;16.23;55.94;99743.44;4961588;28;19995;-91
2022/07/14 03:23:18;;;;;;;;;;;;;;;16.26;55.66;99750.16;4961605;28;20304;-91
2022/07/14 03:25:46;;;;;;;;;;;;;;;16.14;56.85;99740.59;4977855;28;19956;-91
2022/07/14 03:28:13;;;;;;;;;;;;;;;16.16;56.24;99740.25;4961577;28;19921;-91
2022/07/14 03:30:40;;;;;;;;;;;;;;;16.12;56.34;99745.50;4962074;28;20376;-92
2022/07/14 03:33:05;;;;;;;;;;;;;;;15.76;57.15;99747.94;4977708;28;19918;-91
2022/07/14 03:35:32;;;;;;;;;;;;;;;15.71;57.39;99748.00;4977280;28;19996;-90
2022/07/14 03:37:57;;;;;;;;;;;;;;;15.72;57.62;99745.00;4977440;28;19914;-91
2022/07/14 03:40:22;;;;;;;;;;;;;;;15.85;57.26;99750.78;4978008;28;20380;-91
2022/07/14 03:42:48;;;;;;;;;;;;;;;15.73;57.79;99749.34;4961087;28;19980;-91
2022/07/14 03:45:13;;;;;;;;;;;;;;;15.75;57.60;99749.84;4961184;28;19914;-91
2022/07/14 03:47:38;;;;;;;;;;;;;;;15.91;57.43;99747.69;4961198;28;19914;-91
2022/07/14 03:50:06;;;;;;;;;;;;;;;15.96;57.42;99750.34;4960735;28;19936;-91
2022/07/14 03:52:31;;;;;;;;;;;;;;;15.93;57.34;99748.22;4977295;28;19922;-91
2022/07/14 03:54:57;;;;;;;;;;;;;;;16.07;57.15;99752.91;4962982;28;20016;-91
2022/07/14 03:57:23;;;;;;;;;;;;;;;16.01;57.24;99762.25;4995324;28;20323;-91
2022/07/14 03:59:49;;;;;;;;;;;;;;;16.05;57.38;99758.63;4980654;28;19920;-91
2022/07/14 04:02:15;;;;;;;;;;;;;;;16.17;56.75;99758.19;4996270;28;20007;-91
2022/07/14 04:04:40;;;;;;;;;;;;;;;16.21;56.70;99752.94;4996779;28;19949;-91
2022/07/14 04:07:07;;;;;;;;;;;;;;;16.23;56.82;99753.47;4980260;28;19918;-91
2022/07/14 04:09:32;;;;;;;;;;;;;;;16.21;56.97;99745.63;4996707;28;19917;-92
2022/07/14 04:12:00;;;;;;;;;;;;;;;16.25;56.93;99756.69;4981242;28;19972;-91
2022/07/14 04:14:29;;;;;;;;;;;;;;;16.29;56.93;99758.53;4969659;28;21818;-91
2022/07/14 04:16:54;;;;;;;;;;;;;;;16.35;56.60;99757.34;4978970;28;19914;-92
2022/07/14 04:19:19;;;;;;;;;;;;;;;16.41;56.37;99760.78;4979339;28;19945;-96
2022/07/14 04:21:45;;;;;;;;;;;;;;;16.48;56.12;99760.41;4950390;28;19914;-92
2022/07/14 04:24:12;;;;;;;;;;;;;;;16.51;56.40;99759.81;4957859;28;19914;-93
2022/07/14 04:26:40;;;;;;;;;;;;;;;16.61;56.31;99762.34;4960824;28;20460;-96
2022/07/14 04:29:08;;;;;;;;;;;;;;;16.68;55.86;99767.38;4947355;28;19914;-96
2022/07/14 04:31:36;;;;;;;;;;;;;;;16.77;56.34;99766.41;4963437;28;20380;-95
2022/07/14 04:34:04;;;;;;;;;;;;;;;16.90;55.49;99761.31;4962197;28;19918;-93
2022/07/14 04:36:30;;;;;;;;;;;;;;;16.94;55.50;99765.03;4941507;28;19922;-93
2022/07/14 04:38:56;;;;;;;;;;;;;;;17.02;55.13;99766.28;4958264;28;19949;-92
2022/07/14 04:41:22;;;;;;;;;;;;;;;17.19;55.27;99766.47;4947208;28;19927;-96
2022/07/14 04:43:54;;;;;;;;;;;;;;;17.34;53.69;99777.03;4942250;28;20053;-94
2022/07/14 04:46:21;;;;;;;;;;;;;;;17.48;53.51;99782.47;4943609;28;19965;-92
2022/07/14 04:54:17;;;;;;;;;;;;;;;17.96;51.42;99775.75;4960087;28;20053;-92
2022/07/14 04:56:42;;;;;;;;;;;;;;;18.13;50.86;99791.41;4961246;28;20394;-94
2022/07/14 04:59:12;;;;;;;;;;;;;;;18.31;49.20;99787.72;4979168;28;19918;-95
2022/07/14 05:01:50;;;;;;;;;;;;;;;18.44;49.07;99787.97;4982560;28;19986;-93
2022/07/14 05:04:19;;;;;;;;;;;;;;;18.52;49.46;99789.94;4970149;28;19918;-94
2022/07/14 05:06:46;;;;;;;;;;;;;;;18.68;48.38;99796.63;4943654;29;19919;-95
2022/07/14 05:09:12;;;;;;;;;;;;;;;18.68;49.29;99798.56;4939230;29;19914;-94
2022/07/14 05:11:38;;;;;;;;;;;;;;;18.81;49.07;99802.34;4940324;29;19919;-96
2022/07/14 05:14:04;;;;;;;;;;;;;;;18.92;48.18;99798.22;4954769;28;20420;-92
2022/07/14 05:16:35;;;;;;;;;;;;;;;18.92;47.27;99798.22;4945528;29;19965;-95
2022/07/14 05:19:01;;;;;;;;;;;;;;;18.97;47.44;99803.56;4943263;29;19918;-94
2022/07/14 05:21:28;;;;;;;;;;;;;;;19.13;48.08;99802.03;4941775;29;20005;-93
2022/07/14 05:23:54;;;;;;;;;;;;;;;19.21;47.54;99796.91;4958599;29;19914;-95
2022/07/14 05:26:19;;;;;;;;;;;;;;;19.20;48.43;99787.13;4936967;29;19925;-93
2022/07/14 05:28:44;;;;;;;;;;;;;;;19.32;48.10;99790.84;4941277;29;19919;-94
2022/07/14 05:31:10;;;;;;;;;;;;;;;19.43;47.22;99794.06;4941425;29;19938;-93
2022/07/14 05:33:36;;;;;;;;;;;;;;;19.40;47.44;99781.03;4937617;29;19915;-92
2022/07/14 05:36:01;;;;;;;;;;;;;;;19.59;47.53;99787.06;4922559;29;19994;-93
2022/07/14 05:38:27;;;;;;;;;;;;;;;19.82;45.74;99788.88;4972945;28;19957;-93
2022/07/14 05:40:53;;;;;;;;;;;;;;;19.79;44.86;99788.38;4963296;28;20335;-93
2022/07/14 05:43:21;;;;;;;;;;;;;;;19.88;45.13;99779.38;4968479;28;19914;-92
2022/07/14 05:45:46;;;;;;;;;;;;;;;20.00;45.30;99785.03;4996884;28;19913;-95
2022/07/14 05:48:12;;;;;;;;;;;;;;;20.11;45.12;99782.78;4987655;28;19913;-94
2022/07/14 05:58:52;;;;;;;;;;;;;;;20.59;44.66;99779.84;5081894;28;19931;-92
2022/07/14 06:01:21;;;;;;;;;;;;;;;20.76;44.84;99773.53;5046077;28;20011;-96
2022/07/14 06:04:17;;;;;;;;;;;;;;;20.93;44.49;99777.34;5042852;28;20070;-96
2022/07/14 06:10:09;;;;;;;;;;;;;;;21.30;43.75;99775.72;5046347;28;19917;-95
2022/07/14 06:12:43;;;;;;;;;;;;;;;21.48;43.17;99770.97;5028068;28;19916;-96
2022/07/14 06:15:09;;;;;;;;;;;;;;;21.69;42.12;99775.69;5025549;28;19917;-93
2022/07/14 06:17:34;;;;;;;;;;;;;;;21.80;42.53;99769.47;5023690;28;19920;-94
2022/07/14 06:20:06;;;;;;;;;;;;;;;21.96;41.78;99772.41;5024555;28;19913;-94
2022/07/14 06:22:37;;;;;;;;;;;;;;;22.11;40.70;99776.47;5015013;28;20353;-94
2022/07/14 06:45:34;;;;;;;;;;;;;;;23.17;37.60;99768.78;5492375;23;19926;-93
2022/07/14 06:48:02;;;;;;;;;;;;;;;23.32;36.46;99776.31;4966753;28;19969;-95
2022/07/14 06:50:30;;;;;;;;;;;;;;;23.47;36.40;99763.03;4981179;28;19913;-93
2022/07/14 06:53:04;;;;;;;;;;;;;;;23.56;36.28;99761.75;4974680;28;19933;-94
2022/07/14 06:55:30;;;;;;;;;;;;;;;23.66;35.77;99757.75;4981704;28;19917;-91
2022/07/14 06:57:58;;;;;;;;;;;;;;;23.81;35.75;99761.75;4966700;28;20400;-94
2022/07/14 07:00:23;;;;;;;;;;;;;;;23.90;35.02;99753.34;4965648;28;19914;-93
2022/07/14 07:03:02;;;;;;;;;;;;;;;;;;;;;
2022/07/14 07:11:19;;;;;;;;;;;;;;;24.28;36.05;99752.03;4971283;28;19968;-93
2022/07/14 07:13:45;;;;;;;;;;;;;;;24.46;34.59;99750.56;4980554;28;20368;-95
2022/07/14 07:16:23;;;;;;;;;;;;;;;24.58;35.09;99744.22;4965407;28;19921;-92
2022/07/14 07:18:51;;;;;;;;;;;;;;;24.71;33.74;99753.22;4964204;28;20071;-95
2022/07/14 07:21:20;;;;;;;;;;;;;;;24.79;33.81;99742.00;4969400;28;19918;-93
2022/07/14 07:23:46;;;;;;;;;;;;;;;24.83;34.67;99741.31;4965010;28;19925;-94
2022/07/14 07:26:24;;;;;;;;;;;;;;;;;;;;;
2022/07/14 07:28:55;;;;;;;;;;;;;;;25.06;34.30;99736.75;4986042;28;20008;-95
2022/07/14 07:31:21;;;;;;;;;;;;;;;25.20;33.83;99742.66;4970977;28;20323;-95
2022/07/14 07:33:52;;;;;;;;;;;;;;;25.35;35.26;99731.94;4972129;28;19918;-92
2022/07/14 07:36:17;;;;;;;;;;;;;;;25.48;34.10;99733.41;4968439;28;19914;-93
2022/07/14 07:38:45;;;;;;;;;;;;;;;25.63;33.82;99730.97;4965905;28;19920;-95
2022/07/14 07:41:13;;;;;;;;;;;;;;;25.79;33.07;99731.72;4971743;28;19921;-92
2022/07/14 07:43:43;;;;;;;;;;;;;;;25.87;32.64;99733.47;4966325;28;19913;-95
2022/07/14 07:46:17;;;;;;;;;;;;;;;25.94;33.35;99735.59;4969813;28;19918;-95
2022/07/14 07:48:51;;;;;;;;;;;;;;;26.06;33.39;99734.66;4985957;28;19921;-96
2022/07/14 07:51:16;;;;;;;;;;;;;;;26.11;32.27;99729.66;5000567;28;19925;-94
2022/07/14 07:53:45;;;;;;;;;;;;;;;26.22;32.67;99732.59;4985250;28;19959;-94
2022/07/14 07:56:15;;;;;;;;;;;;;;;26.29;33.17;99737.47;4983053;28;19913;-95
2022/07/14 07:58:40;;;;;;;;;;;;;;;26.41;32.74;99745.56;4982527;28;19956;-95
2022/07/14 08:01:12;;;;;;;;;;;;;;;26.48;32.14;99736.63;4982194;28;19972;-94
2022/07/14 08:03:49;;;;;;;;;;;;;;;26.51;32.21;99739.44;4984245;28;19945;-95
2022/07/14 08:06:14;;;;;;;;;;;;;;;26.54;31.45;99733.22;4999046;28;19957;-95
2022/07/14 08:08:42;;;;;;;;;;;;;;;26.65;31.21;99730.66;4984226;28;20300;-95
2022/07/14 08:11:08;;;;;;;;;;;;;;;26.70;31.13;99726.78;4999673;28;19932;-95
2022/07/14 08:13:33;;;;;;;;;;;;;;;26.68;31.05;99735.44;4980731;28;19918;-95
2022/07/14 08:15:59;;;;;;;;;;;;;;;26.73;31.03;99735.13;4981019;28;20298;-96
2022/07/14 08:18:26;;;;;;;;;;;;;;;26.66;30.50;99728.69;4971607;28;19921;-94
2022/07/14 08:21:05;;;;;;;;;;;;;;;26.73;31.55;99726.03;4985432;28;19914;-90
2022/07/14 08:23:34;;;;;;;;;;;;;;;26.74;30.59;99727.66;4962590;28;19918;-90
2022/07/14 08:25:59;;;;;;;;;;;;;;;26.82;30.61;99726.59;4973609;28;19971;-91
2022/07/14 08:28:27;;;;;;;;;;;;;;;27.01;30.39;99717.41;4986785;28;19954;-92
2022/07/14 08:30:53;;;;;;;;;;;;;;;27.12;29.67;99723.09;4973543;28;19918;-91
2022/07/14 08:33:39;;;;;;;;;;;;;;;27.18;28.37;99724.38;4972575;28;19990;-96
2022/07/14 08:36:19;;;;;;;;;;;;;;;27.21;27.11;99713.38;4984164;28;19942;-95
2022/07/14 08:38:44;;;;;;;;;;;;;;;27.25;27.00;99709.91;4980911;28;19949;-95
2022/07/14 08:41:10;;;;;;;;;;;;;;;27.31;26.93;99713.94;4964417;28;19914;-96
2022/07/14 08:43:37;;;;;;;;;;;;;;;27.23;26.87;99715.00;4963624;28;19922;-96
2022/07/14 08:46:05;;;;;;;;;;;;;;;27.23;26.83;99709.47;4977735;28;19922;-96
2022/07/14 08:48:32;;;;;;;;;;;;;;;27.24;27.19;99702.78;4963608;28;19914;-96
2022/07/14 08:51:19;;;;;;;;;;;;;;;27.27;26.28;99697.31;4979432;28;19925;-90
2022/07/14 08:53:44;;;;;;;;;;;;;;;27.36;26.81;99697.03;4977250;28;20377;-89
2022/07/14 08:56:55;;;;;;;;;;;;;;;27.43;26.42;99699.88;4977442;28;19997;-95
2022/07/14 08:59:21;;;;;;;;;;;;;;;27.43;26.19;99699.88;4983476;28;19921;-91
2022/07/14 09:01:51;;;;;;;;;;;;;;;27.52;27.26;99699.63;4988149;28;19914;-92
2022/07/14 09:04:41;;;;;;;;;;;;;;;27.66;25.26;99696.22;4972170;28;19918;-93
2022/07/14 09:07:36;;;;;;;;;;;;;;;27.66;24.88;99691.47;4943887;29;19929;-92
2022/07/14 09:17:21;;;;;;;;;;;;;;;;;;;;;
2022/07/14 09:26:12;;;;;;;;;;;;;;;28.13;24.41;99681.00;4920486;29;20066;-96
2022/07/14 09:28:56;;;;;;;;;;;;;;;28.14;24.61;99680.63;4912625;29;19943;-96
2022/07/14 09:31:31;;;;;;;;;;;;;;;28.29;25.16;99686.31;4946821;29;19918;-96
2022/07/14 09:34:05;;;;;;;;;;;;;;;28.42;23.23;99677.31;4967940;28;19922;-94
2022/07/14 09:39:37;;;;;;;;;;;;;;;28.51;23.97;99670.69;4947095;28;19957;-92
2022/07/14 10:03:28;;;;;;;;;;;;;;;28.87;21.08;99644.06;5164655;23;19933;-94
2022/07/14 10:06:01;;;;;;;;;;;;;;;28.97;21.34;99642.50;4948183;28;20297;-93
2022/07/14 10:08:36;;;;;;;;;;;;;;;29.05;21.10;99641.38;4970987;28;19921;-94
2022/07/14 10:11:03;;;;;;;;;;;;;;;29.09;21.33;99633.09;4965568;28;19914;-93
2022/07/14 10:13:30;;;;;;;;;;;;;;;29.16;21.98;99639.50;5000665;28;19914;-93
2022/07/14 10:15:56;;;;;;;;;;;;;;;29.28;21.41;99638.38;4999481;28;19921;-93
2022/07/14 10:18:25;;;;;;;;;;;;;;;29.26;20.72;99632.44;4996208;28;20380;-95
2022/07/14 10:20:51;;;;;;;;;;;;;;;29.30;21.22;99636.03;4999037;28;20025;-92
2022/07/14 10:23:17;;;;;;;;;;;;;;;29.34;20.94;99622.16;4977528;28;19914;-90
2022/07/14 10:25:45;;;;;;;;;;;;;;;29.40;20.52;99620.59;4949184;28;19918;-93
2022/07/14 10:28:10;;;;;;;;;;;;;;;29.44;21.21;99624.16;4958001;28;19965;-93
2022/07/14 10:30:36;;;;;;;;;;;;;;;29.48;20.80;99613.88;4943600;28;20365;-92
2022/07/14 10:33:10;;;;;;;;;;;;;;;29.53;21.19;99621.84;4943800;28;19918;-91
2022/07/14 10:35:53;;;;;;;;;;;;;;;29.61;22.03;99617.09;4958428;28;20009;-92
2022/07/14 10:38:40;;;;;;;;;;;;;;;29.64;20.59;99608.00;4961413;28;19914;-92
2022/07/14 10:41:11;;;;;;;;;;;;;;;29.63;20.80;99606.41;4964466;28;19914;-93
2022/07/14 10:43:50;;;;;;;;;;;;;;;29.74;21.12;99604.50;4964546;28;19913;-93
2022/07/14 10:46:35;;;;;;;;;;;;;;;29.62;19.89;99599.28;4944157;28;20022;-91
2022/07/14 10:49:01;;;;;;;;;;;;;;;29.65;21.08;99592.13;4970594;28;20043;-91
2022/07/14 10:51:27;;;;;;;;;;;;;;;29.70;20.02;99589.81;4965898;28;19953;-92
2022/07/14 10:53:58;;;;;;;;;;;;;;;29.80;20.09;99591.81;4964910;28;19937;-94
2022/07/14 10:56:32;;;;;;;;;;;;;;;29.76;19.94;99592.97;4979948;28;20016;-91
2022/07/14 10:59:16;;;;;;;;;;;;;;;29.73;19.96;99580.69;4956868;28;19964;-94
2022/07/14 11:05:00;;;;;;;;;;;;;;;29.98;19.79;99574.38;4978030;28;19929;-92
2022/07/14 11:14:07;;;;;;;;;;;;;;;30.18;20.02;99580.34;4889946;28;19951;-95
2022/07/14 11:16:55;;;;;;;;;;;;;;;30.17;19.60;99567.63;4973218;28;19914;-96
2022/07/14 11:22:41;;;;;;;;;;;;;;;;;;;;;
2022/07/14 11:25:23;;;;;;;;;;;;;;;30.44;20.45;99556.16;5002354;28;20355;-96
2022/07/14 11:27:57;;;;;;;;;;;;;;;30.52;21.06;99552.94;4970385;28;19977;-96
2022/07/14 11:30:27;;;;;;;;;;;;;;;30.55;20.24;99556.94;4975948;28;19953;-96
2022/07/14 11:32:59;;;;;;;;;;;;;;;30.65;19.67;99558.09;4972317;28;19957;-96
2022/07/14 11:38:37;;;;;;;;;;;;;;;30.56;19.70;99564.06;5000308;28;19920;-94
2022/07/14 11:41:02;;;;;;;;;;;;;;;30.53;19.59;99557.34;4967924;28;19969;-93
2022/07/14 11:43:31;;;;;;;;;;;;;;;30.48;20.02;99554.94;4972180;28;19913;-96
2022/07/14 11:45:56;;;;;;;;;;;;;;;30.53;19.83;99551.00;4990760;28;19913;-96
2022/07/14 11:48:23;;;;;;;;;;;;;;;30.56;19.99;99552.94;4974006;28;19949;-95
2022/07/14 11:56:40;;;;;;;;;;;;;;;30.45;19.36;99552.19;4932377;29;19907;-96
2022/07/14 11:59:36;;;;;;;;;;;;;;;;;;;;;
2022/07/14 12:02:09;;;;;;;;;;;;;;;30.32;21.24;99538.72;4990876;28;19988;-91
2022/07/14 12:04:34;;;;;;;;;;;;;;;30.49;20.18;99539.88;4965724;28;19914;-91
2022/07/14 12:06:59;;;;;;;;;;;;;;;30.51;20.63;99540.25;4963333;28;20198;-92
2022/07/14 12:09:33;;;;;;;;;;;;;;;30.54;20.74;99531.13;4972014;28;19937;-92
2022/07/14 12:11:58;;;;;;;;;;;;;;;30.61;20.34;99539.44;4979739;28;19944;-93
2022/07/14 12:14:26;;;;;;;;;;;;;;;30.60;19.74;99543.41;4982735;28;20004;-94
2022/07/14 12:16:51;;;;;;;;;;;;;;;30.54;19.88;99533.09;4964160;28;19914;-92
2022/07/14 12:19:46;;;;;;;;;;;;;;;30.46;19.74;99526.75;4965529;28;20403;-94
2022/07/14 12:22:12;;;;;;;;;;;;;;;30.54;19.94;99530.31;4974514;28;19926;-93
2022/07/14 12:24:38;;;;;;;;;;;;;;;30.46;19.67;99523.19;4981099;28;19918;-93
2022/07/14 12:27:04;;;;;;;;;;;;;;;30.66;20.04;99527.13;4971652;28;19921;-94
2022/07/14 12:29:30;;;;;;;;;;;;;;;30.71;19.86;99517.56;4965275;28;19920;-93
2022/07/14 12:31:57;;;;;;;;;;;;;;;30.75;20.12;99523.91;4964814;28;19990;-90
2022/07/14 12:34:22;;;;;;;;;;;;;;;30.85;19.78;99516.75;4965712;28;19996;-92
2022/07/14 12:36:48;;;;;;;;;;;;;;;30.83;19.30;99511.56;4963440;28;19924;-91
2022/07/14 12:39:19;;;;;;;;;;;;;;;30.96;19.54;99509.97;4965745;28;19914;-94
2022/07/14 12:41:48;;;;;;;;;;;;;;;31.01;19.22;99506.78;4966274;28;20299;-94
2022/07/14 12:44:25;;;;;;;;;;;;;;;31.09;19.61;99501.97;4966557;28;20348;-96
2022/07/14 12:47:19;;;;;;;;;;;;;;;;;;;;;
2022/07/14 12:49:45;;;;;;;;;;;;;;;31.56;19.57;99499.72;4986430;28;19977;-93
2022/07/14 12:52:14;;;;;;;;;;;;;;;31.67;19.02;99491.31;4975969;28;19953;-93
2022/07/14 12:54:40;;;;;;;;;;;;;;;31.82;19.66;99492.78;5003509;28;19913;-96
2022/07/14 12:57:06;;;;;;;;;;;;;;;32.04;19.76;99486.25;4992259;28;19921;-92
2022/07/14 12:59:32;;;;;;;;;;;;;;;32.28;19.29;99493.59;4977628;28;19962;-92
2022/07/14 13:02:01;;;;;;;;;;;;;;;32.37;18.63;99484.75;4962307;28;20372;-93
2022/07/14 13:04:34;;;;;;;;;;;;;;;32.51;18.74;99484.59;4963372;28;19913;-94
2022/07/14 13:07:27;;;;;;;;;;;;;;;32.64;18.95;99476.50;4964049;28;19937;-93
2022/07/14 13:10:11;;;;;;;;;;;;;;;32.72;18.79;99480.00;4971628;28;19914;-94
2022/07/14 13:12:38;;;;;;;;;;;;;;;32.81;18.72;99478.31;4995539;28;19925;-93
2022/07/14 13:15:07;;;;;;;;;;;;;;;32.84;18.50;99473.88;4962251;28;19914;-93
2022/07/14 13:17:55;;;;;;;;;;;;;;;32.98;18.57;99473.72;4978205;28;19918;-94
2022/07/14 13:20:48;;;;;;;;;;;;;;;33.17;18.21;99466.69;4978520;28;20395;-95
2022/07/14 13:23:27;;;;;;;;;;;;;;;33.30;17.94;99463.34;4962446;28;20068;-93
2022/07/14 13:26:13;;;;;;;;;;;;;;;33.42;17.40;99454.38;4981553;28;20367;-95
2022/07/14 13:28:39;;;;;;;;;;;;;;;33.55;17.03;99472.09;4962933;28;19914;-94
2022/07/14 13:31:17;;;;;;;;;;;;;;;33.63;17.14;99461.66;4964519;28;19920;-92
2022/07/14 13:33:46;;;;;;;;;;;;;;;33.71;16.66;99462.34;4960987;28;19969;-95
2022/07/14 13:36:12;;;;;;;;;;;;;;;33.85;16.78;99464.09;4944563;28;19914;-93
2022/07/14 13:38:42;;;;;;;;;;;;;;;33.98;16.42;99459.47;4947890;28;19977;-93
2022/07/14 13:41:19;;;;;;;;;;;;;;;34.13;16.32;99460.81;4947972;28;19936;-96
2022/07/14 13:46:34;;;;;;;;;;;;;;;34.45;16.65;99450.25;4959517;28;19914;-94
2022/07/14 13:54:47;;;;;;;;;;;;;;;35.87;14.88;99442.72;4973291;28;19994;-96
2022/07/14 13:57:13;;;;;;;;;;;;;;;36.04;14.75;99439.88;4931363;28;19914;-95
2022/07/14 13:59:48;;;;;;;;;;;;;;;36.07;15.16;99445.41;4933392;29;19898;-96
2022/07/14 14:02:23;;;;;;;;;;;;;;;36.54;14.11;99441.31;4947517;29;20305;-94
2022/07/14 14:04:53;;;;;;;;;;;;;;;36.42;14.65;99431.63;4950297;29;20030;-95
2022/07/14 14:07:30;;;;;;;;;;;;;;;36.90;14.38;99437.50;4949072;29;20366;-95
2022/07/14 14:09:56;;;;;;;;;;;;;;;36.92;14.01;99424.59;4946616;29;19915;-95
2022/07/14 14:12:24;;;;;;;;;;;;;;;37.34;13.98;99423.72;4927125;29;19973;-93
2022/07/14 14:14:55;;;;;;;;;;;;;;;37.18;13.17;99436.66;4960289;29;19922;-94
2022/07/14 14:17:20;;;;;;;;;;;;;;;37.01;13.71;99426.75;4944692;29;19919;-94
2022/07/14 14:19:48;;;;;;;;;;;;;;;37.14;13.91;99427.53;4928246;29;19942;-95
2022/07/14 14:22:17;;;;;;;;;;;;;;;37.07;13.69;99422.13;4922276;29;19914;-94
2022/07/14 14:24:42;;;;;;;;;;;;;;;37.43;13.32;99421.00;4933476;28;19914;-96
2022/07/14 14:27:08;;;;;;;;;;;;;;;37.74;13.32;99424.00;4964060;28;19914;-92
2022/07/14 14:29:33;;;;;;;;;;;;;;;38.01;13.23;99411.44;4954609;28;19914;-95
2022/07/14 14:31:59;;;;;;;;;;;;;;;38.16;12.83;99412.53;4946191;28;19918;-94
2022/07/14 14:38:02;;;;;;;;;;;;;;;37.93;13.06;99413.72;4938138;28;19914;-96
2022/07/14 14:40:30;;;;;;;;;;;;;;;38.26;12.36;99410.56;4989117;28;20045;-93
2022/07/14 14:42:58;;;;;;;;;;;;;;;38.72;12.63;99404.47;4967418;28;19918;-95
2022/07/14 14:45:28;;;;;;;;;;;;;;;39.02;11.51;99408.56;4962736;28;19914;-94
2022/07/14 14:47:53;;;;;;;;;;;;;;;38.42;12.44;99404.75;4944685;28;19914;-92
2022/07/14 14:50:19;;;;;;;;;;;;;;;38.10;12.50;99403.09;4961123;28;19914;-94
2022/07/14 14:52:49;;;;;;;;;;;;;;;38.12;12.60;99406.25;4945155;28;19925;-95
2022/07/14 14:55:17;;;;;;;;;;;;;;;38.59;12.35;99393.31;4946942;28;19914;-91
2022/07/14 14:57:45;;;;;;;;;;;;;;;39.14;11.93;99398.44;4947376;28;20415;-94
2022/07/14 15:00:10;;;;;;;;;;;;;;;38.84;12.16;99397.97;4947783;28;19918;-93